sensor_id;sensor_type;location;lat;lon;timestamp;P1;durP1;ratioP1;P2;durP2;ratioP2
70725;SDS011;58304;53.104;6.022;2023-02-28T00:01:01;6.43;;;1.98;;
70725;SDS011;58304;53.104;6.022;2023-02-28T00:03:27;7.30;;;1.90;;
70725;SDS011;58304;53.104;6.022;2023-02-28T00:05:52;12.07;;;2.38;;
70725;SDS011;58304;53.104;6.022;2023-02-28T00:08:18;8.57;;;2.05;;
70725;SDS011;58304;53.104;6.022;2023-02-28T00:10:44;6.75;;;2.22;;
70725;SDS011;58304;53.104;6.022;2023-02-28T00:13:09;10.68;;;1.83;;
70725;SDS011;58304;53.104;6.022;2023-02-28T00:18:01;8.48;;;1.80;;
70725;SDS011;58304;53.104;6.022;2023-02-28T00:20:28;5.93;;;1.88;;
70725;SDS011;58304;53.104;6.022;2023-02-28T00:22:54;9.45;;;2.30;;
70725;SDS011;58304;53.104;6.022;2023-02-28T00:25:21;4.15;;;1.80;;
70725;SDS011;58304;53.104;6.022;2023-02-28T00:27:49;6.80;;;1.83;;
70725;SDS011;58304;53.104;6.022;2023-02-28T00:32:41;7.03;;;2.00;;
70725;SDS011;58304;53.104;6.022;2023-02-28T00:35:08;8.63;;;2.05;;
70725;SDS011;58304;53.104;6.022;2023-02-28T00:37:35;7.47;;;2.17;;
70725;SDS011;58304;53.104;6.022;2023-02-28T00:40:02;5.88;;;2.10;;
70725;SDS011;58304;53.104;6.022;2023-02-28T00:42:30;6.13;;;2.15;;
70725;SDS011;58304;53.104;6.022;2023-02-28T00:47:22;5.75;;;2.05;;
70725;SDS011;58304;53.104;6.022;2023-02-28T00:49:49;7.97;;;2.28;;
70725;SDS011;58304;53.104;6.022;2023-02-28T00:52:14;7.80;;;2.20;;
70725;SDS011;58304;53.104;6.022;2023-02-28T00:54:43;4.70;;;2.03;;
70725;SDS011;58304;53.104;6.022;2023-02-28T00:57:08;8.02;;;2.40;;
70725;SDS011;58304;53.104;6.022;2023-02-28T00:59:34;6.90;;;2.38;;
70725;SDS011;58304;53.104;6.022;2023-02-28T01:02:00;7.40;;;2.40;;
70725;SDS011;58304;53.104;6.022;2023-02-28T01:04:25;9.90;;;2.67;;
70725;SDS011;58304;53.104;6.022;2023-02-28T01:06:51;7.25;;;2.30;;
70725;SDS011;58304;53.104;6.022;2023-02-28T01:09:19;7.80;;;2.58;;
70725;SDS011;58304;53.104;6.022;2023-02-28T01:11:45;5.47;;;2.40;;
70725;SDS011;58304;53.104;6.022;2023-02-28T01:14:14;7.35;;;2.38;;
70725;SDS011;58304;53.104;6.022;2023-02-28T01:16:41;8.43;;;2.63;;
70725;SDS011;58304;53.104;6.022;2023-02-28T01:19:07;8.27;;;2.53;;
70725;SDS011;58304;53.104;6.022;2023-02-28T01:21:32;8.85;;;2.40;;
70725;SDS011;58304;53.104;6.022;2023-02-28T01:23:59;6.70;;;2.28;;
70725;SDS011;58304;53.104;6.022;2023-02-28T01:26:26;6.38;;;2.45;;
70725;SDS011;58304;53.104;6.022;2023-02-28T01:28:52;6.70;;;2.42;;
70725;SDS011;58304;53.104;6.022;2023-02-28T01:31:18;6.10;;;2.45;;
70725;SDS011;58304;53.104;6.022;2023-02-28T01:33:44;6.25;;;2.47;;
70725;SDS011;58304;53.104;6.022;2023-02-28T01:36:18;7.22;;;2.70;;
70725;SDS011;58304;53.104;6.022;2023-02-28T01:38:46;5.00;;;2.22;;
70725;SDS011;58304;53.104;6.022;2023-02-28T01:46:11;5.93;;;2.33;;
70725;SDS011;58304;53.104;6.022;2023-02-28T01:48:45;7.00;;;2.70;;
70725;SDS011;58304;53.104;6.022;2023-02-28T01:51:22;6.97;;;2.38;;
70725;SDS011;58304;53.104;6.022;2023-02-28T01:53:58;6.00;;;2.38;;
70725;SDS011;58304;53.104;6.022;2023-02-28T01:56:30;9.07;;;2.83;;
70725;SDS011;58304;53.104;6.022;2023-02-28T01:59:02;6.43;;;2.30;;
70725;SDS011;58304;53.104;6.022;2023-02-28T02:01:28;8.15;;;2.88;;
70725;SDS011;58304;53.104;6.022;2023-02-28T02:03:56;7.65;;;2.40;;
70725;SDS011;58304;53.104;6.022;2023-02-28T02:06:29;7.15;;;2.80;;
70725;SDS011;58304;53.104;6.022;2023-02-28T02:09:09;8.02;;;2.67;;
70725;SDS011;58304;53.104;6.022;2023-02-28T02:11:35;8.13;;;2.53;;
70725;SDS011;58304;53.104;6.022;2023-02-28T02:26:16;8.07;;;2.83;;
70725;SDS011;58304;53.104;6.022;2023-02-28T02:28:36;5.05;;;2.38;;
70725;SDS011;58304;53.104;6.022;2023-02-28T02:34:16;5.80;;;2.20;;
70725;SDS011;58304;53.104;6.022;2023-02-28T02:37:13;7.95;;;2.63;;
70725;SDS011;58304;53.104;6.022;2023-02-28T02:42:50;7.40;;;2.40;;
70725;SDS011;58304;53.104;6.022;2023-02-28T02:45:33;5.95;;;2.30;;
70725;SDS011;58304;53.104;6.022;2023-02-28T02:48:05;5.45;;;2.45;;
70725;SDS011;58304;53.104;6.022;2023-02-28T02:50:39;7.38;;;2.85;;
70725;SDS011;58304;53.104;6.022;2023-02-28T02:53:09;7.38;;;2.80;;
70725;SDS011;58304;53.104;6.022;2023-02-28T02:55:41;8.10;;;2.88;;
70725;SDS011;58304;53.104;6.022;2023-02-28T02:58:12;9.38;;;3.10;;
70725;SDS011;58304;53.104;6.022;2023-02-28T03:01:02;9.07;;;2.50;;
70725;SDS011;58304;53.104;6.022;2023-02-28T03:03:28;6.90;;;2.58;;
70725;SDS011;58304;53.104;6.022;2023-02-28T03:05:57;5.10;;;2.63;;
70725;SDS011;58304;53.104;6.022;2023-02-28T03:08:24;7.72;;;3.15;;
70725;SDS011;58304;53.104;6.022;2023-02-28T03:10:54;6.63;;;2.42;;
70725;SDS011;58304;53.104;6.022;2023-02-28T03:13:42;4.40;;;2.03;;
70725;SDS011;58304;53.104;6.022;2023-02-28T03:24:18;7.45;;;2.35;;
70725;SDS011;58304;53.104;6.022;2023-02-28T03:26:52;6.45;;;2.25;;
70725;SDS011;58304;53.104;6.022;2023-02-28T03:29:33;5.72;;;2.05;;
70725;SDS011;58304;53.104;6.022;2023-02-28T03:32:04;5.68;;;2.08;;
70725;SDS011;58304;53.104;6.022;2023-02-28T03:34:48;6.53;;;2.17;;
70725;SDS011;58304;53.104;6.022;2023-02-28T03:37:22;6.07;;;1.90;;
70725;SDS011;58304;53.104;6.022;2023-02-28T03:39:55;4.22;;;2.00;;
70725;SDS011;58304;53.104;6.022;2023-02-28T03:42:25;5.65;;;1.92;;
70725;SDS011;58304;53.104;6.022;2023-02-28T03:44:58;5.65;;;2.17;;
70725;SDS011;58304;53.104;6.022;2023-02-28T03:47:31;5.75;;;2.15;;
70725;SDS011;58304;53.104;6.022;2023-02-28T03:50:08;7.20;;;2.20;;
70725;SDS011;58304;53.104;6.022;2023-02-28T03:52:39;7.00;;;2.08;;
70725;SDS011;58304;53.104;6.022;2023-02-28T03:55:11;7.03;;;1.92;;
70725;SDS011;58304;53.104;6.022;2023-02-28T03:57:53;6.63;;;1.70;;
70725;SDS011;58304;53.104;6.022;2023-02-28T04:00:27;4.55;;;1.70;;
70725;SDS011;58304;53.104;6.022;2023-02-28T04:03:00;4.97;;;2.00;;
70725;SDS011;58304;53.104;6.022;2023-02-28T04:05:27;8.05;;;1.90;;
70725;SDS011;58304;53.104;6.022;2023-02-28T04:07:53;4.90;;;1.75;;
70725;SDS011;58304;53.104;6.022;2023-02-28T04:10:19;6.32;;;1.75;;
70725;SDS011;58304;53.104;6.022;2023-02-28T04:12:46;6.15;;;2.00;;
70725;SDS011;58304;53.104;6.022;2023-02-28T04:15:12;4.72;;;1.95;;
70725;SDS011;58304;53.104;6.022;2023-02-28T04:17:37;5.95;;;1.92;;
70725;SDS011;58304;53.104;6.022;2023-02-28T04:20:05;6.30;;;2.03;;
70725;SDS011;58304;53.104;6.022;2023-02-28T04:22:35;10.18;;;2.42;;
70725;SDS011;58304;53.104;6.022;2023-02-28T04:25:01;4.43;;;1.80;;
70725;SDS011;58304;53.104;6.022;2023-02-28T04:27:27;3.50;;;1.77;;
70725;SDS011;58304;53.104;6.022;2023-02-28T04:29:53;8.65;;;2.22;;
70725;SDS011;58304;53.104;6.022;2023-02-28T04:32:20;7.25;;;2.15;;
70725;SDS011;58304;53.104;6.022;2023-02-28T04:34:45;7.63;;;2.30;;
70725;SDS011;58304;53.104;6.022;2023-02-28T04:37:11;5.10;;;2.17;;
70725;SDS011;58304;53.104;6.022;2023-02-28T04:39:38;5.93;;;2.03;;
70725;SDS011;58304;53.104;6.022;2023-02-28T04:42:04;4.70;;;2.30;;
70725;SDS011;58304;53.104;6.022;2023-02-28T04:46:58;5.82;;;2.40;;
70725;SDS011;58304;53.104;6.022;2023-02-28T04:49:24;4.53;;;2.55;;
70725;SDS011;58304;53.104;6.022;2023-02-28T04:51:50;5.28;;;2.80;;
70725;SDS011;58304;53.104;6.022;2023-02-28T04:54:16;4.57;;;2.88;;
70725;SDS011;58304;53.104;6.022;2023-02-28T04:56:43;8.45;;;4.10;;
70725;SDS011;58304;53.104;6.022;2023-02-28T04:59:08;9.98;;;4.18;;
70725;SDS011;58304;53.104;6.022;2023-02-28T05:01:34;8.73;;;3.92;;
70725;SDS011;58304;53.104;6.022;2023-02-28T05:04:01;8.43;;;4.10;;
70725;SDS011;58304;53.104;6.022;2023-02-28T05:06:30;10.63;;;4.38;;
70725;SDS011;58304;53.104;6.022;2023-02-28T05:08:58;7.97;;;4.28;;
70725;SDS011;58304;53.104;6.022;2023-02-28T05:13:51;7.72;;;3.58;;
70725;SDS011;58304;53.104;6.022;2023-02-28T05:16:19;7.25;;;3.80;;
70725;SDS011;58304;53.104;6.022;2023-02-28T05:18:45;6.47;;;3.28;;
70725;SDS011;58304;53.104;6.022;2023-02-28T05:24:00;7.40;;;3.30;;
70725;SDS011;58304;53.104;6.022;2023-02-28T05:26:28;6.28;;;2.95;;
70725;SDS011;58304;53.104;6.022;2023-02-28T05:31:20;5.85;;;2.50;;
70725;SDS011;58304;53.104;6.022;2023-02-28T05:33:46;5.40;;;3.00;;
70725;SDS011;58304;53.104;6.022;2023-02-28T05:36:12;6.10;;;3.17;;
70725;SDS011;58304;53.104;6.022;2023-02-28T05:38:38;5.88;;;3.00;;
70725;SDS011;58304;53.104;6.022;2023-02-28T05:41:10;6.90;;;3.20;;
70725;SDS011;58304;53.104;6.022;2023-02-28T05:43:36;5.80;;;3.15;;
70725;SDS011;58304;53.104;6.022;2023-02-28T05:46:03;9.13;;;3.60;;
70725;SDS011;58304;53.104;6.022;2023-02-28T05:48:30;7.15;;;3.38;;
70725;SDS011;58304;53.104;6.022;2023-02-28T05:50:57;6.38;;;3.15;;
70725;SDS011;58304;53.104;6.022;2023-02-28T05:53:23;5.75;;;3.30;;
70725;SDS011;58304;53.104;6.022;2023-02-28T05:55:48;6.68;;;3.80;;
70725;SDS011;58304;53.104;6.022;2023-02-28T05:58:14;8.18;;;3.80;;
70725;SDS011;58304;53.104;6.022;2023-02-28T06:00:42;7.40;;;3.38;;
70725;SDS011;58304;53.104;6.022;2023-02-28T06:03:08;7.53;;;3.25;;
70725;SDS011;58304;53.104;6.022;2023-02-28T06:05:34;5.78;;;3.17;;
70725;SDS011;58304;53.104;6.022;2023-02-28T06:07:59;6.40;;;3.30;;
70725;SDS011;58304;53.104;6.022;2023-02-28T06:10:25;6.35;;;3.38;;
70725;SDS011;58304;53.104;6.022;2023-02-28T06:12:51;7.80;;;3.65;;
70725;SDS011;58304;53.104;6.022;2023-02-28T06:15:16;8.35;;;3.90;;
70725;SDS011;58304;53.104;6.022;2023-02-28T06:17:42;8.45;;;4.10;;
70725;SDS011;58304;53.104;6.022;2023-02-28T06:20:09;7.18;;;3.78;;
70725;SDS011;58304;53.104;6.022;2023-02-28T06:22:37;7.65;;;4.25;;
70725;SDS011;58304;53.104;6.022;2023-02-28T06:27:30;10.43;;;4.30;;
70725;SDS011;58304;53.104;6.022;2023-02-28T06:29:57;9.95;;;4.32;;
70725;SDS011;58304;53.104;6.022;2023-02-28T06:32:23;9.27;;;4.50;;
70725;SDS011;58304;53.104;6.022;2023-02-28T06:34:48;9.38;;;4.20;;
70725;SDS011;58304;53.104;6.022;2023-02-28T06:37:15;11.75;;;5.10;;
70725;SDS011;58304;53.104;6.022;2023-02-28T06:39:41;9.95;;;4.90;;
70725;SDS011;58304;53.104;6.022;2023-02-28T06:42:06;8.10;;;4.18;;
70725;SDS011;58304;53.104;6.022;2023-02-28T06:44:32;8.00;;;4.70;;
70725;SDS011;58304;53.104;6.022;2023-02-28T06:47:00;8.55;;;4.40;;
70725;SDS011;58304;53.104;6.022;2023-02-28T06:49:30;9.70;;;4.95;;
70725;SDS011;58304;53.104;6.022;2023-02-28T06:51:56;8.82;;;4.65;;
70725;SDS011;58304;53.104;6.022;2023-02-28T06:54:22;8.57;;;4.55;;
70725;SDS011;58304;53.104;6.022;2023-02-28T06:56:47;9.80;;;4.88;;
70725;SDS011;58304;53.104;6.022;2023-02-28T06:59:13;12.63;;;5.03;;
70725;SDS011;58304;53.104;6.022;2023-02-28T07:01:39;11.05;;;4.70;;
70725;SDS011;58304;53.104;6.022;2023-02-28T07:04:06;10.25;;;4.68;;
70725;SDS011;58304;53.104;6.022;2023-02-28T07:06:31;8.95;;;4.28;;
70725;SDS011;58304;53.104;6.022;2023-02-28T07:11:24;8.60;;;4.25;;
70725;SDS011;58304;53.104;6.022;2023-02-28T07:13:52;9.32;;;5.05;;
70725;SDS011;58304;53.104;6.022;2023-02-28T07:16:22;9.32;;;4.60;;
70725;SDS011;58304;53.104;6.022;2023-02-28T07:18:49;11.40;;;4.80;;
70725;SDS011;58304;53.104;6.022;2023-02-28T07:21:16;12.15;;;5.28;;
70725;SDS011;58304;53.104;6.022;2023-02-28T07:23:43;11.80;;;5.70;;
70725;SDS011;58304;53.104;6.022;2023-02-28T07:26:12;11.45;;;5.18;;
70725;SDS011;58304;53.104;6.022;2023-02-28T07:28:40;11.75;;;5.38;;
70725;SDS011;58304;53.104;6.022;2023-02-28T07:31:09;10.48;;;4.85;;
70725;SDS011;58304;53.104;6.022;2023-02-28T07:33:36;11.68;;;5.30;;
70725;SDS011;58304;53.104;6.022;2023-02-28T07:36:15;11.10;;;5.45;;
70725;SDS011;58304;53.104;6.022;2023-02-28T07:38:43;10.80;;;4.97;;
70725;SDS011;58304;53.104;6.022;2023-02-28T07:41:13;13.80;;;5.57;;
70725;SDS011;58304;53.104;6.022;2023-02-28T07:43:39;11.50;;;5.22;;
70725;SDS011;58304;53.104;6.022;2023-02-28T07:46:05;10.68;;;4.97;;
70725;SDS011;58304;53.104;6.022;2023-02-28T07:48:33;9.70;;;4.70;;
70725;SDS011;58304;53.104;6.022;2023-02-28T07:50:59;12.93;;;5.15;;
70725;SDS011;58304;53.104;6.022;2023-02-28T07:53:25;11.38;;;5.55;;
70725;SDS011;58304;53.104;6.022;2023-02-28T07:55:58;12.35;;;5.97;;
70725;SDS011;58304;53.104;6.022;2023-02-28T07:58:26;11.02;;;5.55;;
70725;SDS011;58304;53.104;6.022;2023-02-28T08:00:52;12.50;;;5.80;;
70725;SDS011;58304;53.104;6.022;2023-02-28T08:03:18;12.02;;;5.90;;
70725;SDS011;58304;53.104;6.022;2023-02-28T08:05:46;10.90;;;5.30;;
70725;SDS011;58304;53.104;6.022;2023-02-28T08:08:12;11.13;;;5.28;;
70725;SDS011;58304;53.104;6.022;2023-02-28T08:10:39;11.68;;;5.32;;
70725;SDS011;58304;53.104;6.022;2023-02-28T08:13:05;12.25;;;5.88;;
70725;SDS011;58304;53.104;6.022;2023-02-28T08:15:31;12.73;;;5.65;;
70725;SDS011;58304;53.104;6.022;2023-02-28T08:17:56;10.70;;;5.43;;
70725;SDS011;58304;53.104;6.022;2023-02-28T08:20:23;11.45;;;5.20;;
70725;SDS011;58304;53.104;6.022;2023-02-28T08:22:49;10.73;;;5.07;;
70725;SDS011;58304;53.104;6.022;2023-02-28T08:25:15;12.05;;;5.60;;
70725;SDS011;58304;53.104;6.022;2023-02-28T08:27:40;9.23;;;4.88;;
70725;SDS011;58304;53.104;6.022;2023-02-28T08:30:06;11.68;;;5.25;;
70725;SDS011;58304;53.104;6.022;2023-02-28T08:32:33;11.23;;;5.07;;
70725;SDS011;58304;53.104;6.022;2023-02-28T08:34:58;8.98;;;4.82;;
70725;SDS011;58304;53.104;6.022;2023-02-28T08:37:24;12.10;;;5.43;;
70725;SDS011;58304;53.104;6.022;2023-02-28T08:39:50;11.45;;;5.45;;
70725;SDS011;58304;53.104;6.022;2023-02-28T08:42:16;10.98;;;5.10;;
70725;SDS011;58304;53.104;6.022;2023-02-28T08:44:41;12.07;;;6.28;;
70725;SDS011;58304;53.104;6.022;2023-02-28T08:47:07;15.82;;;6.60;;
70725;SDS011;58304;53.104;6.022;2023-02-28T08:49:33;13.70;;;5.55;;
70725;SDS011;58304;53.104;6.022;2023-02-28T08:51:58;10.70;;;5.45;;
70725;SDS011;58304;53.104;6.022;2023-02-28T08:54:24;11.27;;;5.53;;
70725;SDS011;58304;53.104;6.022;2023-02-28T08:56:50;11.45;;;5.60;;
70725;SDS011;58304;53.104;6.022;2023-02-28T08:59:15;11.75;;;5.78;;
70725;SDS011;58304;53.104;6.022;2023-02-28T09:01:41;12.18;;;5.50;;
70725;SDS011;58304;53.104;6.022;2023-02-28T09:04:08;14.18;;;6.45;;
70725;SDS011;58304;53.104;6.022;2023-02-28T09:06:35;12.10;;;5.70;;
70725;SDS011;58304;53.104;6.022;2023-02-28T09:09:01;11.43;;;6.15;;
70725;SDS011;58304;53.104;6.022;2023-02-28T09:11:29;13.18;;;6.18;;
70725;SDS011;58304;53.104;6.022;2023-02-28T09:13:55;12.75;;;6.57;;
70725;SDS011;58304;53.104;6.022;2023-02-28T09:16:20;11.48;;;6.03;;
70725;SDS011;58304;53.104;6.022;2023-02-28T09:18:46;11.45;;;5.90;;
70725;SDS011;58304;53.104;6.022;2023-02-28T09:21:14;13.38;;;5.78;;
70725;SDS011;58304;53.104;6.022;2023-02-28T09:23:42;13.23;;;6.68;;
70725;SDS011;58304;53.104;6.022;2023-02-28T09:26:15;14.82;;;6.95;;
70725;SDS011;58304;53.104;6.022;2023-02-28T09:28:43;15.30;;;7.40;;
70725;SDS011;58304;53.104;6.022;2023-02-28T09:31:20;11.63;;;6.45;;
70725;SDS011;58304;53.104;6.022;2023-02-28T09:33:48;14.00;;;6.72;;
70725;SDS011;58304;53.104;6.022;2023-02-28T09:36:14;11.05;;;5.85;;
70725;SDS011;58304;53.104;6.022;2023-02-28T09:38:40;13.88;;;6.05;;
70725;SDS011;58304;53.104;6.022;2023-02-28T09:41:15;11.52;;;5.55;;
70725;SDS011;58304;53.104;6.022;2023-02-28T09:43:45;14.55;;;6.30;;
70725;SDS011;58304;53.104;6.022;2023-02-28T09:48:46;14.50;;;6.63;;
70725;SDS011;58304;53.104;6.022;2023-02-28T09:51:23;12.75;;;6.50;;
70725;SDS011;58304;53.104;6.022;2023-02-28T09:54:03;15.20;;;6.95;;
70725;SDS011;58304;53.104;6.022;2023-02-28T09:56:41;14.00;;;6.82;;
70725;SDS011;58304;53.104;6.022;2023-02-28T10:07:07;8.82;;;4.75;;
70725;SDS011;58304;53.104;6.022;2023-02-28T10:09:49;8.85;;;4.47;;
70725;SDS011;58304;53.104;6.022;2023-02-28T10:12:19;9.75;;;4.60;;
70725;SDS011;58304;53.104;6.022;2023-02-28T10:17:15;13.27;;;5.00;;
70725;SDS011;58304;53.104;6.022;2023-02-28T10:22:15;9.90;;;4.38;;
70725;SDS011;58304;53.104;6.022;2023-02-28T10:24:46;8.20;;;3.90;;
70725;SDS011;58304;53.104;6.022;2023-02-28T10:27:18;7.15;;;3.50;;
70725;SDS011;58304;53.104;6.022;2023-02-28T10:29:53;7.47;;;3.80;;
70725;SDS011;58304;53.104;6.022;2023-02-28T10:32:22;9.15;;;4.18;;
70725;SDS011;58304;53.104;6.022;2023-02-28T10:37:40;5.15;;;3.03;;
70725;SDS011;58304;53.104;6.022;2023-02-28T10:42:58;5.47;;;2.90;;
70725;SDS011;58304;53.104;6.022;2023-02-28T10:45:52;5.15;;;2.67;;
70725;SDS011;58304;53.104;6.022;2023-02-28T10:58:28;4.20;;;2.55;;
70725;SDS011;58304;53.104;6.022;2023-02-28T11:01:21;4.90;;;2.63;;
70725;SDS011;58304;53.104;6.022;2023-02-28T11:03:49;5.70;;;2.42;;
70725;SDS011;58304;53.104;6.022;2023-02-28T11:06:20;5.30;;;2.65;;
70725;SDS011;58304;53.104;6.022;2023-02-28T11:08:51;5.53;;;2.85;;
70725;SDS011;58304;53.104;6.022;2023-02-28T11:11:19;4.80;;;2.30;;
70725;SDS011;58304;53.104;6.022;2023-02-28T11:13:48;4.20;;;2.47;;
70725;SDS011;58304;53.104;6.022;2023-02-28T11:16:17;4.40;;;2.58;;
70725;SDS011;58304;53.104;6.022;2023-02-28T11:18:53;4.18;;;2.45;;
70725;SDS011;58304;53.104;6.022;2023-02-28T11:21:30;5.57;;;2.50;;
70725;SDS011;58304;53.104;6.022;2023-02-28T11:24:03;6.18;;;2.55;;
70725;SDS011;58304;53.104;6.022;2023-02-28T11:26:50;5.20;;;2.40;;
70725;SDS011;58304;53.104;6.022;2023-02-28T11:29:29;6.25;;;3.03;;
70725;SDS011;58304;53.104;6.022;2023-02-28T11:34:34;5.32;;;2.97;;
70725;SDS011;58304;53.104;6.022;2023-02-28T11:37:02;3.85;;;1.88;;
70725;SDS011;58304;53.104;6.022;2023-02-28T11:39:30;2.92;;;1.63;;
70725;SDS011;58304;53.104;6.022;2023-02-28T11:52:57;3.25;;;1.60;;
70725;SDS011;58304;53.104;6.022;2023-02-28T11:55:29;5.30;;;1.75;;
70725;SDS011;58304;53.104;6.022;2023-02-28T11:58:09;3.90;;;1.80;;
70725;SDS011;58304;53.104;6.022;2023-02-28T12:03:26;5.03;;;1.92;;
70725;SDS011;58304;53.104;6.022;2023-02-28T12:09:15;4.85;;;2.00;;
70725;SDS011;58304;53.104;6.022;2023-02-28T12:22:28;4.07;;;1.92;;
70725;SDS011;58304;53.104;6.022;2023-02-28T12:27:32;3.55;;;1.88;;
70725;SDS011;58304;53.104;6.022;2023-02-28T12:33:04;3.65;;;2.13;;
70725;SDS011;58304;53.104;6.022;2023-02-28T12:35:38;4.55;;;2.35;;
70725;SDS011;58304;53.104;6.022;2023-02-28T12:38:22;3.42;;;1.90;;
70725;SDS011;58304;53.104;6.022;2023-02-28T12:43:52;4.43;;;2.25;;
70725;SDS011;58304;53.104;6.022;2023-02-28T12:46:29;3.80;;;2.13;;
70725;SDS011;58304;53.104;6.022;2023-02-28T12:49:08;3.83;;;2.28;;
70725;SDS011;58304;53.104;6.022;2023-02-28T12:51:37;3.63;;;2.00;;
70725;SDS011;58304;53.104;6.022;2023-02-28T12:59:53;6.60;;;2.25;;
70725;SDS011;58304;53.104;6.022;2023-02-28T13:05:39;4.18;;;2.08;;
70725;SDS011;58304;53.104;6.022;2023-02-28T13:08:23;4.50;;;2.13;;
70725;SDS011;58304;53.104;6.022;2023-02-28T13:11:24;4.70;;;2.17;;
70725;SDS011;58304;53.104;6.022;2023-02-28T13:13:56;3.13;;;1.88;;
70725;SDS011;58304;53.104;6.022;2023-02-28T13:16:27;4.78;;;2.20;;
70725;SDS011;58304;53.104;6.022;2023-02-28T13:19:08;4.25;;;2.20;;
70725;SDS011;58304;53.104;6.022;2023-02-28T13:21:41;3.78;;;2.20;;
70725;SDS011;58304;53.104;6.022;2023-02-28T13:24:09;4.80;;;2.30;;
70725;SDS011;58304;53.104;6.022;2023-02-28T13:34:33;4.18;;;2.42;;
70725;SDS011;58304;53.104;6.022;2023-02-28T13:39:54;4.45;;;2.25;;
70725;SDS011;58304;53.104;6.022;2023-02-28T13:47:43;5.07;;;2.38;;
70725;SDS011;58304;53.104;6.022;2023-02-28T13:50:29;4.10;;;2.42;;
70725;SDS011;58304;53.104;6.022;2023-02-28T13:58:12;5.65;;;2.40;;
70725;SDS011;58304;53.104;6.022;2023-02-28T14:06:35;4.50;;;2.40;;
70725;SDS011;58304;53.104;6.022;2023-02-28T14:11:55;5.82;;;2.78;;
70725;SDS011;58304;53.104;6.022;2023-02-28T14:17:03;5.07;;;2.40;;
70725;SDS011;58304;53.104;6.022;2023-02-28T14:19:39;5.13;;;2.60;;
70725;SDS011;58304;53.104;6.022;2023-02-28T14:31:13;5.63;;;2.60;;
70725;SDS011;58304;53.104;6.022;2023-02-28T14:36:26;5.82;;;2.85;;
70725;SDS011;58304;53.104;6.022;2023-02-28T14:38:57;5.35;;;2.83;;
70725;SDS011;58304;53.104;6.022;2023-02-28T14:43:57;6.20;;;2.90;;
70725;SDS011;58304;53.104;6.022;2023-02-28T14:46:26;5.65;;;3.47;;
70725;SDS011;58304;53.104;6.022;2023-02-28T14:49:03;5.35;;;3.10;;
70725;SDS011;58304;53.104;6.022;2023-02-28T14:51:30;7.75;;;2.20;;
70725;SDS011;58304;53.104;6.022;2023-02-28T14:53:57;3.88;;;2.25;;
70725;SDS011;58304;53.104;6.022;2023-02-28T14:56:29;6.68;;;2.30;;
70725;SDS011;58304;53.104;6.022;2023-02-28T14:58:59;3.90;;;2.10;;
70725;SDS011;58304;53.104;6.022;2023-02-28T15:01:25;4.00;;;2.25;;
70725;SDS011;58304;53.104;6.022;2023-02-28T15:03:58;4.53;;;2.65;;
70725;SDS011;58304;53.104;6.022;2023-02-28T15:06:27;5.45;;;2.33;;
70725;SDS011;58304;53.104;6.022;2023-02-28T15:09:07;5.43;;;2.60;;
70725;SDS011;58304;53.104;6.022;2023-02-28T15:11:34;5.85;;;2.50;;
70725;SDS011;58304;53.104;6.022;2023-02-28T15:14:00;3.88;;;2.03;;
70725;SDS011;58304;53.104;6.022;2023-02-28T15:16:33;4.28;;;2.42;;
70725;SDS011;58304;53.104;6.022;2023-02-28T15:19:03;4.75;;;2.47;;
70725;SDS011;58304;53.104;6.022;2023-02-28T15:21:36;3.97;;;2.20;;
70725;SDS011;58304;53.104;6.022;2023-02-28T15:26:41;4.47;;;2.25;;
70725;SDS011;58304;53.104;6.022;2023-02-28T15:29:15;5.00;;;2.28;;
70725;SDS011;58304;53.104;6.022;2023-02-28T15:32:06;4.68;;;2.47;;
70725;SDS011;58304;53.104;6.022;2023-02-28T15:34:41;3.97;;;2.25;;
70725;SDS011;58304;53.104;6.022;2023-02-28T15:45:33;5.47;;;2.55;;
70725;SDS011;58304;53.104;6.022;2023-02-28T15:48:03;5.68;;;2.58;;
70725;SDS011;58304;53.104;6.022;2023-02-28T15:50:30;4.40;;;2.55;;
70725;SDS011;58304;53.104;6.022;2023-02-28T15:52:56;4.28;;;2.00;;
70725;SDS011;58304;53.104;6.022;2023-02-28T15:55:23;5.65;;;2.72;;
70725;SDS011;58304;53.104;6.022;2023-02-28T15:57:53;4.07;;;2.30;;
70725;SDS011;58304;53.104;6.022;2023-02-28T16:00:27;4.13;;;2.13;;
70725;SDS011;58304;53.104;6.022;2023-02-28T16:02:54;3.97;;;2.30;;
70725;SDS011;58304;53.104;6.022;2023-02-28T16:05:21;5.68;;;2.47;;
70725;SDS011;58304;53.104;6.022;2023-02-28T16:10:31;4.68;;;2.55;;
70725;SDS011;58304;53.104;6.022;2023-02-28T16:12:56;5.85;;;2.65;;
70725;SDS011;58304;53.104;6.022;2023-02-28T16:15:27;4.63;;;2.35;;
70725;SDS011;58304;53.104;6.022;2023-02-28T16:18:43;5.85;;;2.67;;
70725;SDS011;58304;53.104;6.022;2023-02-28T16:21:09;6.00;;;2.77;;
70725;SDS011;58304;53.104;6.022;2023-02-28T16:23:34;5.70;;;2.83;;
70725;SDS011;58304;53.104;6.022;2023-02-28T16:26:00;6.13;;;2.65;;
70725;SDS011;58304;53.104;6.022;2023-02-28T16:28:29;7.93;;;2.90;;
70725;SDS011;58304;53.104;6.022;2023-02-28T16:30:57;5.10;;;2.70;;
70725;SDS011;58304;53.104;6.022;2023-02-28T16:33:25;4.53;;;2.58;;
70725;SDS011;58304;53.104;6.022;2023-02-28T16:35:51;5.95;;;2.97;;
70725;SDS011;58304;53.104;6.022;2023-02-28T16:38:19;6.03;;;3.10;;
70725;SDS011;58304;53.104;6.022;2023-02-28T16:40:59;6.00;;;3.00;;
70725;SDS011;58304;53.104;6.022;2023-02-28T16:44:01;6.00;;;2.90;;
70725;SDS011;58304;53.104;6.022;2023-02-28T16:47:00;5.22;;;3.13;;
70725;SDS011;58304;53.104;6.022;2023-02-28T16:49:29;4.97;;;2.92;;
70725;SDS011;58304;53.104;6.022;2023-02-28T16:51:55;5.60;;;3.08;;
70725;SDS011;58304;53.104;6.022;2023-02-28T17:01:31;7.32;;;2.97;;
70725;SDS011;58304;53.104;6.022;2023-02-28T17:17:16;12.18;;;3.35;;
70725;SDS011;58304;53.104;6.022;2023-02-28T17:19:47;6.70;;;3.10;;
70725;SDS011;58304;53.104;6.022;2023-02-28T17:23:07;6.75;;;3.00;;
70725;SDS011;58304;53.104;6.022;2023-02-28T17:25:33;6.95;;;3.42;;
70725;SDS011;58304;53.104;6.022;2023-02-28T17:28:22;5.75;;;3.30;;
70725;SDS011;58304;53.104;6.022;2023-02-28T17:31:10;6.15;;;3.30;;
70725;SDS011;58304;53.104;6.022;2023-02-28T17:36:01;6.07;;;3.28;;
70725;SDS011;58304;53.104;6.022;2023-02-28T17:40:56;6.50;;;3.60;;
70725;SDS011;58304;53.104;6.022;2023-02-28T17:43:25;6.18;;;3.60;;
70725;SDS011;58304;53.104;6.022;2023-02-28T17:45:52;7.15;;;3.92;;
70725;SDS011;58304;53.104;6.022;2023-02-28T17:50:46;12.95;;;4.63;;
70725;SDS011;58304;53.104;6.022;2023-02-28T17:53:21;9.13;;;4.25;;
70725;SDS011;58304;53.104;6.022;2023-02-28T17:55:48;7.47;;;4.18;;
70725;SDS011;58304;53.104;6.022;2023-02-28T17:58:16;8.35;;;4.00;;
70725;SDS011;58304;53.104;6.022;2023-02-28T18:00:43;7.65;;;4.55;;
70725;SDS011;58304;53.104;6.022;2023-02-28T18:05:35;9.80;;;5.20;;
70725;SDS011;58304;53.104;6.022;2023-02-28T18:10:27;9.05;;;4.90;;
70725;SDS011;58304;53.104;6.022;2023-02-28T18:17:46;10.98;;;5.45;;
70725;SDS011;58304;53.104;6.022;2023-02-28T18:20:12;9.30;;;5.38;;
70725;SDS011;58304;53.104;6.022;2023-02-28T18:22:39;10.60;;;5.43;;
70725;SDS011;58304;53.104;6.022;2023-02-28T18:25:06;11.88;;;5.10;;
70725;SDS011;58304;53.104;6.022;2023-02-28T18:27:34;11.90;;;5.40;;
70725;SDS011;58304;53.104;6.022;2023-02-28T18:30:00;11.35;;;5.78;;
70725;SDS011;58304;53.104;6.022;2023-02-28T18:32:28;10.20;;;5.45;;
70725;SDS011;58304;53.104;6.022;2023-02-28T18:34:53;9.23;;;5.10;;
70725;SDS011;58304;53.104;6.022;2023-02-28T18:39:45;9.27;;;5.10;;
70725;SDS011;58304;53.104;6.022;2023-02-28T18:42:12;10.48;;;5.28;;
70725;SDS011;58304;53.104;6.022;2023-02-28T18:44:37;10.07;;;5.35;;
70725;SDS011;58304;53.104;6.022;2023-02-28T18:47:03;12.98;;;5.53;;
70725;SDS011;58304;53.104;6.022;2023-02-28T18:49:32;10.38;;;5.30;;
70725;SDS011;58304;53.104;6.022;2023-02-28T18:51:59;9.35;;;5.50;;
70725;SDS011;58304;53.104;6.022;2023-02-28T18:54:26;9.52;;;5.18;;